createdAt,value
2018-10-09T00:00:15.514Z,70.52
2018-10-09T00:02:45.293Z,69.85
2018-10-09T00:05:13.918Z,70.30
2018-10-09T00:07:42.361Z,69.79
2018-10-09T00:10:11.023Z,71.37
2018-10-09T00:12:39.443Z,70.81
2018-10-09T00:15:08.009Z,70.50
2018-10-09T00:17:36.491Z,70.92
2018-10-09T00:20:07.157Z,70.29
2018-10-09T00:22:37.014Z,70.33
2018-10-09T00:25:09.408Z,71.27
2018-10-09T00:27:37.786Z,70.87
2018-10-09T00:30:06.626Z,70.26
2018-10-09T00:32:35.070Z,71.18
2018-10-09T00:35:03.542Z,71.03
2018-10-09T00:37:31.959Z,71.92
2018-10-09T00:40:00.402Z,71.62
2018-10-09T00:42:28.880Z,71.81
2018-10-09T00:44:57.342Z,72.25
2018-10-09T00:47:25.776Z,72.52
2018-10-09T00:49:54.247Z,72.60
2018-10-09T00:52:22.818Z,72.12
2018-10-09T00:54:51.297Z,72.58
2018-10-09T00:57:19.753Z,73.27
2018-10-09T00:59:48.406Z,72.77
2018-10-09T01:02:16.864Z,73.32
2018-10-09T01:04:45.314Z,73.53
2018-10-09T01:07:13.765Z,73.83
2018-10-09T01:09:42.183Z,73.78
2018-10-09T01:12:10.762Z,72.77
2018-10-09T01:14:39.178Z,73.95
2018-10-09T01:17:07.701Z,73.43
2018-10-09T01:19:36.213Z,73.45
2018-10-09T01:22:04.823Z,74.00
2018-10-09T01:24:33.917Z,73.68
2018-10-09T01:27:02.353Z,72.97
2018-10-09T01:29:30.765Z,73.64
2018-10-09T01:31:59.238Z,73.62
2018-10-09T01:34:27.670Z,73.79
2018-10-09T01:36:56.118Z,73.49
2018-10-09T01:39:24.539Z,73.29
2018-10-09T01:41:52.993Z,73.58
2018-10-09T01:44:21.450Z,73.29
2018-10-09T01:46:49.930Z,72.69
2018-10-09T01:49:18.346Z,72.71
2018-10-09T01:51:46.787Z,72.86
2018-10-09T01:54:15.242Z,72.32
2018-10-09T01:56:43.650Z,72.32
2018-10-09T01:59:12.090Z,71.90
2018-10-09T02:01:40.514Z,71.74
2018-10-09T02:04:08.977Z,72.13
2018-10-09T02:06:37.410Z,72.02
2018-10-09T02:09:07.971Z,71.58
2018-10-09T02:11:37.041Z,71.67
2018-10-09T02:14:05.573Z,71.50
2018-10-09T02:16:34.022Z,71.28
2018-10-09T02:19:03.084Z,71.28
2018-10-09T02:21:31.534Z,71.24
2018-10-09T02:23:59.974Z,70.61
2018-10-09T02:26:28.451Z,71.02
2018-10-09T02:28:56.908Z,71.00
2018-10-09T02:31:25.666Z,70.40
2018-10-09T02:33:54.110Z,70.59
2018-10-09T02:36:25.530Z,70.65
2018-10-09T02:38:54.191Z,70.35
2018-10-09T02:41:22.664Z,70.25
2018-10-09T02:43:51.150Z,70.65
2018-10-09T02:46:19.596Z,70.24
2018-10-09T02:48:48.013Z,69.70
2018-10-09T02:51:16.510Z,69.97
2018-10-09T02:53:44.917Z,69.69
2018-10-09T02:56:13.378Z,70.28
2018-10-09T02:58:41.819Z,70.97
2018-10-09T03:01:10.297Z,71.20
2018-10-09T03:03:38.706Z,70.87
2018-10-09T03:06:08.357Z,70.64
2018-10-09T03:08:36.956Z,70.84
2018-10-09T03:11:05.398Z,70.86
2018-10-09T03:13:34.238Z,71.25
2018-10-09T03:16:02.809Z,70.92
2018-10-09T03:18:31.223Z,71.04
2018-10-09T03:20:59.870Z,71.09
2018-10-09T03:23:28.301Z,72.04
2018-10-09T03:25:56.749Z,72.14
2018-10-09T03:28:25.181Z,72.43
2018-10-09T03:30:53.661Z,72.46
2018-10-09T03:33:22.191Z,72.03
2018-10-09T03:35:50.641Z,72.23
2018-10-09T03:38:19.139Z,72.45
2018-10-09T03:40:47.561Z,72.33
2018-10-09T03:43:16.158Z,72.28
2018-10-09T03:45:44.563Z,71.75
2018-10-09T03:48:13.001Z,71.58
2018-10-09T03:50:41.417Z,71.26
2018-10-09T03:53:09.869Z,71.18
2018-10-09T03:55:38.285Z,70.62
2018-10-09T03:58:06.901Z,70.91
2018-10-09T04:00:35.377Z,71.02
2018-10-09T04:03:03.883Z,70.07
2018-10-09T04:05:32.289Z,70.53
2018-10-09T04:08:00.737Z,70.34
2018-10-09T04:10:29.125Z,70.52
2018-10-09T04:12:57.569Z,69.68
2018-10-09T04:15:26.009Z,70.66
2018-10-09T04:17:54.602Z,70.45
2018-10-09T04:20:23.055Z,70.54
2018-10-09T04:22:52.901Z,70.52
2018-10-09T04:25:28.534Z,70.20
2018-10-09T04:27:56.963Z,69.61
2018-10-09T04:30:25.365Z,69.94
2018-10-09T04:32:53.814Z,69.95
2018-10-09T04:35:22.202Z,69.70
2018-10-09T04:37:50.767Z,70.18
2018-10-09T04:40:19.211Z,70.14
2018-10-09T04:42:47.647Z,70.24
2018-10-09T04:45:16.094Z,70.14
2018-10-09T04:47:44.581Z,69.93
2018-10-09T04:50:14.746Z,70.43
2018-10-09T04:52:43.214Z,69.77
2018-10-09T04:55:11.653Z,70.70
2018-10-09T04:57:40.099Z,70.19
2018-10-09T05:00:10.093Z,70.63
2018-10-09T05:02:38.579Z,69.81
2018-10-09T05:05:07.179Z,70.04
2018-10-09T05:07:35.643Z,70.45
2018-10-09T05:10:04.334Z,69.77
2018-10-09T05:12:33.145Z,69.65
2018-10-09T05:15:01.791Z,70.76
2018-10-09T05:17:30.224Z,70.42
2018-10-09T05:19:58.841Z,69.48
2018-10-09T05:22:27.290Z,69.83
2018-10-09T05:24:56.010Z,70.55
2018-10-09T05:27:24.500Z,70.56
2018-10-09T05:29:52.972Z,70.99
2018-10-09T05:32:21.490Z,70.04
2018-10-09T05:34:49.938Z,70.04
2018-10-09T05:37:18.462Z,69.99
2018-10-09T05:39:46.890Z,69.64
2018-10-09T05:42:16.241Z,70.04
2018-10-09T05:44:44.691Z,70.15
2018-10-09T05:47:13.750Z,70.39
2018-10-09T05:49:42.282Z,69.55
2018-10-09T05:52:10.870Z,70.07
2018-10-09T05:54:39.965Z,69.88
2018-10-09T05:57:09.302Z,69.82
2018-10-09T05:59:37.742Z,70.40
2018-10-09T06:02:06.424Z,70.51
2018-10-09T06:04:34.938Z,69.83
2018-10-09T06:07:04.215Z,69.50
2018-10-09T06:09:32.895Z,69.98
2018-10-09T06:12:01.389Z,69.64
2018-10-09T06:14:30.166Z,69.92
2018-10-09T06:16:58.882Z,69.83
2018-10-09T06:19:28.514Z,69.70
2018-10-09T06:21:57.165Z,69.95
2018-10-09T06:24:27.459Z,69.36
2018-10-09T06:26:56.118Z,69.28
2018-10-09T06:29:25.460Z,69.74
2018-10-09T06:31:53.910Z,69.79
2018-10-09T06:34:24.098Z,69.06
2018-10-09T06:36:52.525Z,70.13
2018-10-09T06:39:20.962Z,69.21
2018-10-09T06:41:49.458Z,69.14
2018-10-09T06:44:17.958Z,69.46
2018-10-09T06:46:46.382Z,69.36
2018-10-09T06:49:16.096Z,69.36
2018-10-09T06:51:44.510Z,69.81
2018-10-09T06:54:13.164Z,69.92
2018-10-09T06:56:41.446Z,69.12
2018-10-09T06:59:12.323Z,68.92
2018-10-09T07:01:40.761Z,69.23
2018-10-09T07:04:09.230Z,68.96
2018-10-09T07:06:37.674Z,69.27
2018-10-09T07:09:13.117Z,69.01
2018-10-09T07:11:41.674Z,69.11
2018-10-09T07:14:10.109Z,69.40
2018-10-09T07:16:38.578Z,69.11
2018-10-09T07:19:07.170Z,69.46
2018-10-09T07:21:35.731Z,69.10
2018-10-09T07:24:04.454Z,68.72
2018-10-09T07:26:32.881Z,69.20
2018-10-09T07:29:02.065Z,69.46
2018-10-09T07:31:30.503Z,69.21
2018-10-09T07:33:59.166Z,69.14
2018-10-09T07:36:27.678Z,69.72
2018-10-09T07:38:56.233Z,69.28
2018-10-09T07:43:58.545Z,69.82
2018-10-09T07:46:29.606Z,69.50
2018-10-09T07:48:58.370Z,69.05
2018-10-09T07:51:26.901Z,69.22
2018-10-09T07:53:56.215Z,69.89
2018-10-09T07:56:24.874Z,69.51
2018-10-09T07:58:53.544Z,69.36
2018-10-09T08:01:22.041Z,69.29
2018-10-09T08:03:54.630Z,69.60
2018-10-09T08:06:23.245Z,69.29
2018-10-09T08:08:51.739Z,69.19
2018-10-09T08:11:20.321Z,69.18
2018-10-09T08:13:49.390Z,69.41
2018-10-09T08:16:18.102Z,69.03
2018-10-09T08:18:46.486Z,69.12
2018-10-09T08:21:15.457Z,69.36
2018-10-09T08:23:44.770Z,69.30
2018-10-09T08:26:13.435Z,68.75
2018-10-09T08:28:42.500Z,68.49
2018-10-09T08:31:11.567Z,69.13
2018-10-09T08:33:41.136Z,68.25
2018-10-09T08:36:09.681Z,68.05
2018-10-09T08:38:38.394Z,68.72
2018-10-09T08:41:07.165Z,68.67
2018-10-09T08:43:35.764Z,68.13
2018-10-09T08:46:04.260Z,67.86
2018-10-09T08:48:32.675Z,66.81
2018-10-09T08:51:01.153Z,67.63
2018-10-09T08:53:29.622Z,67.03
2018-10-09T08:55:58.130Z,67.44
2018-10-09T08:58:26.849Z,67.19
2018-10-09T09:00:55.414Z,66.84
2018-10-09T09:03:24.005Z,66.92
2018-10-09T09:05:52.662Z,66.79
2018-10-09T09:08:21.309Z,66.34
2018-10-09T09:10:51.598Z,66.58
2018-10-09T09:13:20.065Z,66.62
2018-10-09T09:15:49.672Z,66.52
2018-10-09T09:18:19.094Z,66.38
2018-10-09T09:20:48.667Z,66.58
2018-10-09T09:23:17.219Z,65.89
2018-10-09T09:25:46.762Z,65.75
2018-10-09T09:28:17.215Z,65.95
2018-10-09T09:30:47.807Z,65.72
2018-10-09T09:33:18.296Z,65.41
2018-10-09T09:35:48.900Z,65.70
2018-10-09T09:38:17.305Z,66.14
2018-10-09T09:40:48.304Z,65.98
2018-10-09T09:43:16.946Z,67.50
2018-10-09T09:45:50.321Z,67.03
2018-10-09T09:48:20.891Z,66.54
2018-10-09T09:50:49.378Z,65.95
2018-10-09T09:53:19.403Z,66.10
2018-10-09T09:55:52.662Z,66.10
2018-10-09T09:58:21.225Z,66.07
2018-10-09T10:00:56.142Z,64.71
2018-10-09T10:03:24.641Z,64.38
2018-10-09T10:05:53.105Z,64.74
2018-10-09T10:08:21.559Z,65.04
2018-10-09T10:10:49.971Z,64.94
2018-10-09T10:13:18.451Z,65.03
2018-10-09T10:15:46.958Z,64.99
2018-10-09T10:18:15.419Z,64.16
2018-10-09T10:20:44.550Z,64.19
2018-10-09T10:23:14.653Z,64.18
2018-10-09T10:25:43.290Z,64.62
2018-10-09T10:28:11.798Z,64.88
2018-10-09T10:30:40.371Z,65.07
2018-10-09T10:33:08.877Z,65.56
2018-10-09T10:35:38.387Z,66.06
2018-10-09T10:38:10.128Z,65.84
2018-10-09T10:40:38.661Z,65.75
2018-10-09T10:43:07.169Z,65.94
2018-10-09T10:45:35.578Z,65.85
2018-10-09T10:48:04.063Z,65.94
2018-10-09T10:50:32.504Z,65.64
2018-10-09T10:53:00.954Z,65.58
2018-10-09T10:55:29.414Z,65.66
2018-10-09T10:57:57.870Z,65.12
2018-10-09T11:00:26.405Z,64.94
2018-10-09T11:02:54.835Z,65.10
2018-10-09T11:05:23.667Z,65.05
2018-10-09T11:07:52.316Z,64.72
2018-10-09T11:10:20.798Z,64.51
2018-10-09T11:12:49.599Z,63.70
2018-10-09T11:15:18.105Z,63.55
2018-10-09T11:17:46.530Z,63.10
2018-10-09T11:20:15.007Z,62.89
2018-10-09T11:22:43.470Z,63.17
2018-10-09T11:25:11.994Z,63.38
2018-10-09T11:27:40.603Z,63.61
2018-10-09T11:30:12.241Z,64.20
2018-10-09T11:32:41.269Z,64.55
2018-10-09T11:35:13.062Z,64.32
2018-10-09T11:37:47.838Z,64.68
2018-10-09T11:43:01.006Z,63.40
2018-10-09T11:45:29.502Z,62.18
2018-10-09T11:47:58.010Z,62.49
2018-10-09T11:50:34.765Z,62.28
2018-10-09T11:53:07.751Z,61.79
2018-10-09T11:55:40.633Z,61.17
2018-10-09T11:58:12.802Z,60.82
2018-10-09T12:00:43.394Z,60.29
2018-10-09T12:05:46.131Z,59.77
2018-10-09T12:08:16.212Z,59.52
2018-10-09T12:10:48.490Z,59.32
2018-10-09T12:13:20.353Z,58.93
2018-10-09T12:15:49.823Z,58.64
2018-10-09T12:18:24.889Z,59.33
2018-10-09T12:21:11.912Z,59.18
2018-10-09T12:23:43.479Z,58.11
2018-10-09T12:26:12.850Z,58.43
2018-10-09T12:28:42.792Z,58.07
2018-10-09T12:31:12.039Z,58.26
2018-10-09T12:33:40.726Z,58.12
2018-10-09T12:36:09.231Z,57.94
2018-10-09T12:38:37.761Z,57.67
2018-10-09T12:41:06.227Z,57.45
2018-10-09T12:43:34.649Z,57.41
2018-10-09T12:46:03.328Z,57.38
2018-10-09T12:48:31.777Z,57.56
2018-10-09T12:51:00.534Z,56.56
2018-10-09T12:53:28.990Z,57.09
2018-10-09T12:55:57.442Z,57.56
2018-10-09T12:58:25.912Z,57.54
2018-10-09T13:00:54.378Z,57.62
2018-10-09T13:03:22.899Z,57.72
2018-10-09T13:05:51.462Z,57.13
2018-10-09T13:08:19.909Z,57.07
2018-10-09T13:10:50.261Z,57.23
2018-10-09T13:13:18.679Z,57.04
2018-10-09T13:15:47.147Z,56.29
2018-10-09T13:18:15.563Z,56.24
2018-10-09T13:20:44.073Z,56.40
2018-10-09T13:23:12.548Z,56.06
2018-10-09T13:25:41.022Z,56.57
2018-10-09T13:28:09.698Z,56.30
2018-10-09T13:30:38.267Z,55.93
2018-10-09T13:33:06.826Z,55.42
2018-10-09T13:35:35.684Z,55.04
2018-10-09T13:38:04.186Z,54.98
2018-10-09T13:40:32.641Z,54.19
2018-10-09T13:43:01.264Z,53.83
2018-10-09T13:45:29.726Z,53.29
2018-10-09T13:47:58.268Z,53.18
2018-10-09T13:50:26.782Z,52.65
2018-10-09T13:52:55.257Z,53.29
2018-10-09T13:55:24.146Z,52.71
2018-10-09T13:57:52.677Z,53.30
2018-10-09T14:00:22.294Z,52.29
2018-10-09T14:02:51.498Z,53.35
2018-10-09T14:05:19.949Z,52.81
2018-10-09T14:07:48.446Z,53.67
2018-10-09T14:10:17.309Z,53.71
2018-10-09T14:12:45.703Z,54.27
2018-10-09T14:15:14.332Z,53.93
2018-10-09T14:17:43.330Z,54.24
2018-10-09T14:20:11.961Z,54.15
2018-10-09T14:22:40.605Z,52.74
2018-10-09T14:25:09.062Z,51.99
2018-10-09T14:27:37.616Z,49.29
2018-10-09T14:30:06.878Z,48.50
2018-10-09T14:32:35.407Z,48.51
2018-10-09T14:35:04.045Z,47.65
2018-10-09T14:37:32.484Z,45.34
2018-10-09T14:40:01.921Z,44.71
2018-10-09T14:42:32.573Z,44.17
2018-10-09T14:45:01.138Z,42.66
2018-10-09T14:47:29.638Z,41.54
2018-10-09T14:49:58.478Z,39.25
2018-10-09T14:52:29.581Z,37.37
2018-10-09T14:54:58.174Z,37.80
2018-10-09T14:57:26.599Z,36.74
2018-10-09T14:59:55.174Z,36.27
2018-10-09T15:02:23.608Z,34.72
2018-10-09T15:04:52.139Z,33.03
2018-10-09T15:07:24.079Z,32.95
2018-10-09T15:09:52.871Z,31.47
2018-10-09T15:12:21.311Z,31.37
2018-10-09T15:14:49.747Z,31.71
2018-10-09T15:17:18.219Z,31.40
2018-10-09T15:19:46.754Z,31.88
2018-10-09T15:22:15.206Z,33.85
2018-10-09T15:24:43.670Z,35.45
2018-10-09T15:27:18.392Z,33.86
2018-10-09T15:29:46.857Z,35.52
2018-10-09T15:32:15.383Z,36.74
2018-10-09T15:34:43.862Z,38.65
2018-10-09T15:37:12.510Z,37.94
2018-10-09T15:42:21.215Z,43.38
2018-10-09T15:44:49.642Z,43.18
2018-10-09T15:47:18.320Z,45.51
2018-10-09T15:49:46.677Z,46.55
2018-10-09T15:52:15.151Z,48.28
2018-10-09T15:54:43.591Z,51.09
2018-10-09T15:57:12.023Z,52.56
2018-10-09T15:59:41.842Z,52.83
2018-10-09T16:02:10.294Z,53.33
2018-10-09T16:04:38.722Z,54.30
2018-10-09T16:07:07.594Z,55.29
2018-10-09T16:09:36.006Z,56.70
2018-10-09T16:12:04.589Z,57.25
2018-10-09T16:14:33.010Z,57.31
2018-10-09T16:17:05.360Z,58.25
2018-10-09T16:19:33.774Z,59.12
2018-10-09T16:22:02.282Z,59.33
2018-10-09T16:24:30.702Z,59.54
2018-10-09T16:26:59.785Z,60.58
2018-10-09T16:29:28.199Z,60.27
2018-10-09T16:31:56.642Z,61.23
2018-10-09T16:34:25.078Z,61.24
2018-10-09T16:36:53.535Z,61.53
2018-10-09T16:39:22.002Z,62.27
2018-10-09T16:41:50.818Z,62.34
2018-10-09T16:44:19.242Z,61.93
2018-10-09T16:46:47.687Z,62.40
2018-10-09T16:49:16.149Z,62.70
2018-10-09T16:51:44.578Z,62.52
2018-10-09T16:54:13.066Z,62.78
2018-10-09T16:56:42.502Z,63.50
2018-10-09T16:59:10.953Z,63.49
2018-10-09T17:01:39.467Z,63.42
2018-10-09T17:04:07.974Z,63.35
2018-10-09T17:06:36.418Z,63.57
2018-10-09T17:09:08.794Z,63.71
2018-10-09T17:11:37.549Z,63.91
2018-10-09T17:14:06.022Z,64.23
2018-10-09T17:16:34.445Z,64.28
2018-10-09T17:19:02.982Z,64.28
2018-10-09T17:21:31.468Z,64.46
2018-10-09T17:23:59.998Z,64.62
2018-10-09T17:26:28.407Z,64.49
2018-10-09T17:28:56.850Z,64.48
2018-10-09T17:31:25.280Z,64.31
2018-10-09T17:33:53.725Z,64.36
2018-10-09T17:36:22.343Z,64.41
2018-10-09T17:38:51.135Z,64.59
2018-10-09T17:41:19.922Z,64.30
2018-10-09T17:43:48.366Z,64.20
2018-10-09T17:46:16.854Z,64.07
2018-10-09T17:48:45.307Z,64.48
2018-10-09T17:51:13.907Z,64.20
2018-10-09T17:53:42.370Z,64.45
2018-10-09T17:56:11.015Z,64.28
2018-10-09T17:58:39.414Z,64.87
2018-10-09T18:01:07.913Z,64.79
2018-10-09T18:03:36.334Z,64.65
2018-10-09T18:06:04.810Z,65.35
2018-10-09T18:08:33.239Z,65.50
2018-10-09T18:11:02.582Z,65.86
2018-10-09T18:13:30.994Z,65.84
2018-10-09T18:15:59.450Z,66.01
2018-10-09T18:18:27.853Z,66.09
2018-10-09T18:20:56.374Z,66.35
2018-10-09T18:23:24.817Z,66.43
2018-10-09T18:25:53.295Z,65.78
2018-10-09T18:28:21.718Z,66.32
2018-10-09T18:30:50.193Z,66.47
2018-10-09T18:33:18.714Z,66.47
2018-10-09T18:35:47.122Z,66.97
2018-10-09T18:38:15.522Z,66.81
2018-10-09T18:40:44.001Z,67.02
2018-10-09T18:43:12.429Z,66.35
2018-10-09T18:45:40.846Z,66.47
2018-10-09T18:48:09.311Z,67.02
2018-10-09T18:50:37.726Z,66.90
2018-10-09T18:53:06.655Z,66.63
2018-10-09T18:55:35.898Z,66.80
2018-10-09T18:58:04.387Z,66.43
2018-10-09T19:00:32.804Z,66.72
2018-10-09T19:03:01.974Z,66.89
2018-10-09T19:05:30.402Z,66.82
2018-10-09T19:07:58.879Z,66.77
2018-10-09T19:10:27.290Z,67.31
2018-10-09T19:12:55.770Z,67.27
2018-10-09T19:15:24.238Z,67.49
2018-10-09T19:17:52.716Z,66.58
2018-10-09T19:20:21.225Z,67.08
2018-10-09T19:22:49.863Z,67.40
2018-10-09T19:25:18.318Z,67.54
2018-10-09T19:27:46.931Z,67.42
2018-10-09T19:30:15.409Z,67.41
2018-10-09T19:32:43.995Z,66.90
2018-10-09T19:35:12.314Z,67.43
2018-10-09T19:37:40.879Z,66.88
2018-10-09T19:40:09.309Z,66.56
2018-10-09T19:42:37.791Z,67.43
2018-10-09T19:45:06.268Z,67.78
2018-10-09T19:47:36.283Z,67.27
2018-10-09T19:50:05.466Z,67.88
2018-10-09T19:52:34.142Z,67.89
2018-10-09T19:55:02.902Z,67.75
2018-10-09T19:57:31.378Z,67.29
2018-10-09T20:00:00.028Z,67.12
2018-10-09T20:02:28.477Z,67.73
2018-10-09T20:04:56.901Z,67.64
2018-10-09T20:07:25.570Z,67.83
2018-10-09T20:09:55.496Z,67.84
2018-10-09T20:12:26.517Z,67.94
2018-10-09T20:14:54.941Z,68.42
2018-10-09T20:17:23.635Z,68.67
2018-10-09T20:19:54.770Z,68.69
2018-10-09T20:22:24.794Z,67.96
2018-10-09T20:24:53.252Z,67.81
2018-10-09T20:27:21.746Z,68.78
2018-10-09T20:29:51.575Z,68.96
2018-10-09T20:32:25.665Z,68.13
2018-10-09T20:34:55.908Z,69.19
2018-10-09T20:37:24.443Z,69.15
2018-10-09T20:39:54.100Z,69.18
2018-10-09T20:42:23.888Z,69.79
2018-10-09T20:44:53.008Z,69.68
2018-10-09T20:47:29.898Z,69.56
2018-10-09T20:49:58.422Z,69.58
2018-10-09T20:52:26.879Z,69.94
2018-10-09T20:54:55.357Z,68.69
2018-10-09T20:57:24.687Z,68.91
2018-10-09T20:59:56.088Z,69.07
2018-10-09T21:02:25.170Z,68.56
2018-10-09T21:04:53.674Z,68.11
2018-10-09T21:07:22.120Z,68.81
2018-10-09T21:09:50.684Z,68.80
2018-10-09T21:12:27.471Z,68.86
2018-10-09T21:14:56.785Z,68.48
2018-10-09T21:17:30.336Z,69.30
2018-10-09T21:19:59.338Z,68.52
2018-10-09T21:22:27.883Z,68.51
2018-10-09T21:24:57.173Z,69.02
2018-10-09T21:27:26.658Z,68.82
2018-10-09T21:29:55.297Z,69.13
2018-10-09T21:32:23.771Z,68.78
2018-10-09T21:34:54.859Z,69.18
2018-10-09T21:37:23.367Z,69.58
2018-10-09T21:39:51.870Z,69.30
2018-10-09T21:42:24.542Z,69.16
2018-10-09T21:44:52.985Z,69.72
2018-10-09T21:47:21.474Z,69.16
2018-10-09T21:49:51.638Z,70.05
2018-10-09T21:52:20.271Z,69.59
2018-10-09T21:54:52.803Z,69.43
2018-10-09T21:57:21.245Z,68.90
2018-10-09T21:59:52.206Z,69.31
2018-10-09T22:02:20.709Z,68.91
2018-10-09T22:04:49.129Z,68.36
2018-10-09T22:07:19.333Z,68.70
2018-10-09T22:09:49.834Z,68.86
2018-10-09T22:12:23.054Z,68.70
2018-10-09T22:14:54.486Z,69.20
2018-10-09T22:17:23.018Z,69.26
2018-10-09T22:19:51.425Z,68.74
2018-10-09T22:22:19.963Z,68.97
2018-10-09T22:24:48.462Z,69.30
2018-10-09T22:27:17.528Z,68.60
2018-10-09T22:29:45.969Z,68.55
2018-10-09T22:32:14.593Z,69.31
2018-10-09T22:34:44.046Z,68.95
2018-10-09T22:37:12.614Z,68.70
2018-10-09T22:39:41.396Z,69.27
2018-10-09T22:42:09.854Z,69.44
2018-10-09T22:44:38.270Z,68.67
2018-10-09T22:47:07.518Z,68.87
2018-10-09T22:49:35.991Z,69.18
2018-10-09T22:52:04.885Z,68.99
2018-10-09T22:54:33.355Z,69.81
2018-10-09T22:57:01.946Z,69.72
2018-10-09T22:59:30.469Z,69.88
2018-10-09T23:01:58.886Z,69.68
2018-10-09T23:04:27.383Z,69.52
2018-10-09T23:06:55.833Z,69.57
2018-10-09T23:09:25.068Z,69.50
2018-10-09T23:11:53.497Z,69.23
2018-10-09T23:14:21.974Z,69.78
2018-10-09T23:16:50.441Z,69.13
2018-10-09T23:19:19.022Z,69.47
2018-10-09T23:21:47.465Z,68.63
2018-10-09T23:24:17.001Z,69.26
2018-10-09T23:26:46.273Z,68.95
2018-10-09T23:29:14.789Z,68.99
2018-10-09T23:31:43.262Z,68.97
2018-10-09T23:34:11.777Z,68.70
2018-10-09T23:36:40.243Z,69.35
2018-10-09T23:39:09.311Z,68.95
2018-10-09T23:41:37.855Z,69.37
2018-10-09T23:44:07.948Z,68.92
2018-10-09T23:46:36.473Z,69.49
2018-10-09T23:49:06.111Z,69.05
2018-10-09T23:51:36.642Z,69.59
2018-10-09T23:54:05.911Z,69.37
2018-10-09T23:56:34.482Z,69.79
2018-10-09T23:59:03.015Z,69.93
